Time;durP1;ratioP1;P1;durP2;ratioP2;P2;SDS_P1;SDS_P2;PMS_P1;PMS_P2;Temp;Humidity;BMP_temperature;BMP_pressure;BME280_temperature;BME280_humidity;BME280_pressure;Samples;Min_cycle;Max_cycle;Signal;HPM_P1;HPM_P2
2021/05/30 00:01:49;;;;;;;12.43;8.88;;;10.40;92.60;;;;;;5045085;28;20036;-76
2021/05/30 00:04:15;;;;;;;14.20;9.13;;;10.30;92.60;;;;;;5051588;28;20381;-76
2021/05/30 00:06:41;;;;;;;13.85;10.10;;;10.30;92.70;;;;;;5025638;28;20064;-77
2021/05/30 00:09:07;;;;;;;13.20;9.82;;;10.30;92.70;;;;;;5051721;28;20485;-76
2021/05/30 00:11:35;;;;;;;15.00;11.00;;;10.20;92.80;;;;;;5047230;28;20031;-76
2021/05/30 00:14:02;;;;;;;11.85;9.27;;;10.10;92.80;;;;;;5050849;28;20029;-76
2021/05/30 00:16:28;;;;;;;13.80;10.73;;;10.10;92.90;;;;;;5042898;28;20516;-76
2021/05/30 00:18:54;;;;;;;14.55;11.05;;;10.00;92.90;;;;;;5056053;28;20033;-76
2021/05/30 00:21:19;;;;;;;12.13;10.07;;;10.00;93.00;;;;;;5052160;28;20437;-76
2021/05/30 00:23:45;;;;;;;13.13;10.10;;;9.90;93.00;;;;;;5036831;28;20040;-76
2021/05/30 00:26:11;;;;;;;13.68;9.95;;;9.90;93.10;;;;;;5044937;28;20401;-76
2021/05/30 00:28:37;;;;;;;13.98;10.23;;;9.80;93.20;;;;;;5053719;28;20025;-76
2021/05/30 00:31:03;;;;;;;13.55;9.95;;;9.80;93.20;;;;;;5051711;28;20017;-77
2021/05/30 00:33:28;;;;;;;12.95;9.90;;;9.70;93.20;;;;;;5051012;28;20039;-76
2021/05/30 00:35:54;;;;;;;13.30;9.18;;;9.70;93.30;;;;;;5055058;28;20103;-76
2021/05/30 00:38:19;;;;;;;13.50;10.52;;;9.60;93.30;;;;;;5046858;28;20025;-76
2021/05/30 00:40:45;;;;;;;16.23;10.15;;;9.60;93.40;;;;;;5054144;28;20083;-76
2021/05/30 00:43:10;;;;;;;15.88;10.52;;;9.50;93.40;;;;;;5052170;28;20052;-76
2021/05/30 00:45:36;;;;;;;14.80;10.80;;;9.50;93.40;;;;;;5048936;28;20033;-76
2021/05/30 00:48:02;;;;;;;15.60;10.85;;;9.50;93.50;;;;;;5045320;28;20044;-76
2021/05/30 00:50:27;;;;;;;18.02;11.73;;;9.40;93.50;;;;;;5035998;28;20017;-76
2021/05/30 00:52:53;;;;;;;15.98;11.98;;;9.30;93.60;;;;;;5053016;28;20040;-76
2021/05/30 00:55:21;;;;;;;14.73;10.52;;;9.30;93.60;;;;;;5045072;28;20112;-76
2021/05/30 00:57:47;;;;;;;17.90;12.77;;;9.30;93.70;;;;;;5051234;28;20449;-76
2021/05/30 01:00:14;;;;;;;15.15;11.25;;;9.20;93.70;;;;;;5055377;28;20079;-76
2021/05/30 01:02:40;;;;;;;16.20;12.52;;;9.20;93.70;;;;;;5057492;28;20503;-76
2021/05/30 01:05:08;;;;;;;19.70;12.23;;;9.10;94.00;;;;;;5060210;28;20033;-76
2021/05/30 01:07:40;;;;;;;19.65;12.73;;;9.10;93.80;;;;;;5045496;28;20037;-76
2021/05/30 01:10:33;;;;;;;15.95;11.40;;;9.00;93.80;;;;;;5036414;28;20032;-76
2021/05/30 01:12:59;;;;;;;16.83;11.93;;;9.00;93.90;;;;;;5047295;28;20387;-76
2021/05/30 01:15:26;;;;;;;17.70;10.98;;;8.90;93.90;;;;;;5050431;28;20079;-76
2021/05/30 01:17:54;;;;;;;18.13;13.20;;;8.90;94.00;;;;;;5047023;28;20389;-76
2021/05/30 01:20:21;;;;;;;14.90;11.48;;;8.90;94.00;;;;;;5032121;28;20044;-77
2021/05/30 01:22:48;;;;;;;19.98;13.63;;;9.00;94.00;;;;;;5051129;28;20477;-76
2021/05/30 01:25:19;;;;;;;20.27;13.15;;;9.00;94.00;;;;;;5041095;28;20029;-76
2021/05/30 01:27:45;;;;;;;19.67;13.45;;;9.00;94.00;;;;;;5031703;28;20029;-76
2021/05/30 01:30:13;;;;;;;19.00;13.32;;;8.90;94.00;;;;;;5052024;28;20029;-76
2021/05/30 01:32:39;;;;;;;21.40;14.65;;;8.90;94.00;;;;;;5039714;28;20068;-77
2021/05/30 01:35:05;;;;;;;23.40;14.32;;;8.80;94.00;;;;;;5049440;28;20500;-76
2021/05/30 01:37:32;;;;;;;23.20;13.98;;;8.80;94.10;;;;;;5047733;28;20017;-76
2021/05/30 01:39:58;;;;;;;20.30;13.93;;;8.80;94.10;;;;;;5046119;28;20022;-76
2021/05/30 01:42:23;;;;;;;20.48;14.40;;;8.70;94.10;;;;;;5042543;28;20478;-76
2021/05/30 01:44:49;;;;;;;20.83;15.77;;;8.70;94.20;;;;;;5051666;28;20385;-76
2021/05/30 01:47:14;;;;;;;23.63;14.40;;;8.60;94.20;;;;;;5050638;28;20051;-76
2021/05/30 01:49:41;;;;;;;19.77;14.90;;;8.50;94.30;;;;;;5046259;28;20053;-76
2021/05/30 01:52:07;;;;;;;21.20;13.65;;;8.50;94.30;;;;;;5045907;28;20067;-76
2021/05/30 01:54:35;;;;;;;19.42;14.10;;;8.50;94.40;;;;;;5053426;28;20055;-76
2021/05/30 01:57:08;;;;;;;23.35;13.52;;;8.50;94.40;;;;;;5045459;28;20036;-77
2021/05/30 01:59:33;;;;;;;24.17;14.15;;;8.40;94.40;;;;;;5040156;28;20528;-76
2021/05/30 02:02:00;;;;;;;19.90;13.55;;;8.40;94.40;;;;;;5052848;28;20112;-76
2021/05/30 02:04:39;;;;;;;23.48;14.32;;;8.30;94.40;;;;;;5049575;28;20052;-76
2021/05/30 02:07:04;;;;;;;24.73;14.52;;;8.30;94.40;;;;;;5029068;28;20109;-76
2021/05/30 02:09:31;;;;;;;24.98;14.63;;;8.20;94.40;;;;;;5052030;28;20489;-76
2021/05/30 02:11:58;;;;;;;22.83;15.02;;;8.20;94.50;;;;;;5054370;28;20100;-76
2021/05/30 02:14:24;;;;;;;26.52;16.13;;;8.10;94.50;;;;;;5045965;28;20080;-75
2021/05/30 02:16:50;;;;;;;20.65;13.90;;;8.10;94.50;;;;;;5053785;28;20045;-76
2021/05/30 02:19:15;;;;;;;24.23;14.88;;;8.10;94.60;;;;;;5037791;28;20013;-76
2021/05/30 02:21:50;;;;;;;23.70;14.75;;;8.00;94.60;;;;;;5034757;28;20090;-76
2021/05/30 02:24:18;;;;;;;25.13;14.27;;;8.00;94.60;;;;;;5052473;28;20108;-76
2021/05/30 02:26:44;;;;;;;21.05;14.45;;;8.00;94.70;;;;;;5052502;28;20104;-76
2021/05/30 02:29:17;;;;;;;22.80;14.82;;;7.90;94.60;;;;;;5048150;28;20029;-76
2021/05/30 02:31:42;;;;;;;22.73;15.32;;;7.90;94.60;;;;;;5022580;28;20075;-76
2021/05/30 02:34:08;;;;;;;23.15;14.85;;;7.90;94.70;;;;;;5037986;28;20033;-76
2021/05/30 02:36:33;;;;;;;26.65;16.50;;;7.80;94.70;;;;;;5054796;28;20041;-76
2021/05/30 02:38:59;;;;;;;23.75;14.70;;;7.80;94.70;;;;;;5049042;28;20507;-76
2021/05/30 02:41:24;;;;;;;28.02;16.20;;;7.70;94.70;;;;;;5046726;28;20044;-76
2021/05/30 02:43:50;;;;;;;24.23;16.35;;;7.70;94.70;;;;;;5047186;28;20435;-76
2021/05/30 02:46:16;;;;;;;29.33;16.55;;;7.70;94.80;;;;;;5051308;28;20025;-76
2021/05/30 02:48:42;;;;;;;25.13;14.93;;;7.60;94.80;;;;;;5046324;28;20040;-76
2021/05/30 02:51:08;;;;;;;28.80;16.92;;;7.60;94.90;;;;;;5047618;28;20022;-76
2021/05/30 02:53:34;;;;;;;22.27;14.48;;;7.60;94.90;;;;;;5050831;28;20043;-76
2021/05/30 02:56:01;;;;;;;22.08;15.65;;;7.60;94.90;;;;;;5047582;28;20028;-76
2021/05/30 02:58:29;;;;;;;28.00;17.10;;;7.50;94.90;;;;;;5043350;28;20080;-76
2021/05/30 03:00:55;;;;;;;29.75;16.65;;;7.50;95.00;;;;;;5047553;28;20087;-76
2021/05/30 03:03:20;;;;;;;30.65;16.73;;;7.50;95.00;;;;;;5031517;28;20025;-76
2021/05/30 03:05:46;;;;;;;28.23;15.85;;;7.50;95.00;;;;;;5034106;28;20022;-76
2021/05/30 03:08:12;;;;;;;29.45;16.33;;;7.50;95.00;;;;;;5042151;28;20025;-76
2021/05/30 03:10:37;;;;;;;28.70;17.40;;;7.50;95.00;;;;;;5043973;28;20096;-76
2021/05/30 03:13:03;;;;;;;21.70;14.52;;;7.50;95.10;;;;;;5033281;28;20107;-76
2021/05/30 03:15:29;;;;;;;27.45;15.98;;;7.50;95.10;;;;;;5041240;28;20024;-76
2021/05/30 03:17:55;;;;;;;26.67;14.98;;;7.50;95.10;;;;;;5051407;28;20508;-76
2021/05/30 03:20:22;;;;;;;27.42;16.48;;;7.40;95.10;;;;;;5046699;28;20053;-75
2021/05/30 03:22:48;;;;;;;29.75;16.05;;;7.50;95.10;;;;;;5049463;28;20400;-75
2021/05/30 03:25:14;;;;;;;28.67;16.90;;;7.50;95.10;;;;;;5049077;28;20025;-76
2021/05/30 03:27:39;;;;;;;30.13;16.95;;;7.50;95.10;;;;;;5047780;28;20095;-76
2021/05/30 03:30:06;;;;;;;28.00;16.48;;;7.40;95.10;;;;;;5050219;28;20468;-76
2021/05/30 03:32:32;;;;;;;32.47;16.30;;;7.40;95.10;;;;;;5051802;28;20053;-76
2021/05/30 03:34:59;;;;;;;27.48;15.30;;;7.40;95.10;;;;;;5035367;28;20505;-76
2021/05/30 03:37:25;;;;;;;32.92;18.67;;;7.40;95.20;;;;;;5046582;28;20036;-76
2021/05/30 03:39:54;;;;;;;27.13;16.67;;;7.40;95.20;;;;;;5044783;28;20073;-76
2021/05/30 03:42:23;;;;;;;25.20;16.13;;;7.40;95.20;;;;;;5049054;28;20033;-76
2021/05/30 03:44:48;;;;;;;24.70;14.80;;;7.40;95.20;;;;;;5050261;28;20021;-76
2021/05/30 03:47:14;;;;;;;29.67;16.92;;;7.40;95.20;;;;;;5049253;28;20483;-76
2021/05/30 03:49:40;;;;;;;26.55;15.93;;;7.40;95.20;;;;;;5047508;28;20028;-76
2021/05/30 03:52:07;;;;;;;28.27;16.90;;;7.40;95.20;;;;;;5047662;28;20485;-76
2021/05/30 03:54:33;;;;;;;29.58;17.48;;;7.40;95.20;;;;;;5034128;28;20025;-76
2021/05/30 03:56:58;;;;;;;32.42;17.60;;;7.30;95.30;;;;;;5048886;28;20114;-76
2021/05/30 03:59:24;;;;;;;29.48;17.48;;;7.30;95.30;;;;;;5044465;28;20613;-76
2021/05/30 04:01:49;;;;;;;26.00;16.40;;;7.40;95.30;;;;;;5035532;28;20565;-75
2021/05/30 04:04:15;;;;;;;27.00;16.48;;;7.30;95.30;;;;;;5041174;28;20028;-75
2021/05/30 04:06:40;;;;;;;26.75;16.13;;;7.40;95.30;;;;;;5042765;28;20031;-75
2021/05/30 04:09:06;;;;;;;26.85;16.92;;;7.30;95.30;;;;;;5049884;28;20500;-75
2021/05/30 04:11:32;;;;;;;27.77;15.98;;;7.40;95.40;;;;;;5040464;28;20040;-76
2021/05/30 04:13:57;;;;;;;28.23;18.10;;;7.40;95.40;;;;;;5027191;28;20555;-75
2021/05/30 04:16:23;;;;;;;32.70;16.98;;;7.40;95.40;;;;;;5046450;28;20041;-76
2021/05/30 04:18:48;;;;;;;30.70;17.92;;;7.50;95.40;;;;;;5050990;28;20366;-76
2021/05/30 04:21:14;;;;;;;27.83;16.92;;;7.50;95.40;;;;;;5046306;28;22253;-76
2021/05/30 04:23:40;;;;;;;27.88;16.58;;;7.50;95.40;;;;;;5042223;28;20033;-76
2021/05/30 04:26:05;;;;;;;26.95;16.92;;;7.60;95.30;;;;;;5030750;28;20384;-75
2021/05/30 04:28:31;;;;;;;29.38;17.00;;;7.60;95.30;;;;;;5052347;28;20090;-75
2021/05/30 04:30:57;;;;;;;27.27;16.77;;;7.60;95.30;;;;;;5046199;28;20474;-75
2021/05/30 04:33:22;;;;;;;26.13;16.80;;;7.70;95.30;;;;;;5044232;28;20017;-75
2021/05/30 04:35:49;;;;;;;29.30;18.23;;;7.60;95.30;;;;;;5045724;28;20037;-75
2021/05/30 04:38:15;;;;;;;25.05;16.02;;;7.70;95.30;;;;;;5051292;28;20063;-75
2021/05/30 04:40:40;;;;;;;28.88;16.83;;;7.80;95.30;;;;;;5046480;28;20473;-75
2021/05/30 04:43:06;;;;;;;28.65;16.63;;;7.80;95.30;;;;;;5047254;28;20470;-74
2021/05/30 04:45:32;;;;;;;28.23;16.77;;;7.90;95.20;;;;;;5041683;28;20450;-75
2021/05/30 04:47:57;;;;;;;26.55;17.23;;;8.00;95.30;;;;;;5047636;28;20048;-75
2021/05/30 04:50:23;;;;;;;27.50;17.15;;;8.00;95.20;;;;;;5050540;28;20091;-75
2021/05/30 04:52:48;;;;;;;25.40;16.13;;;8.20;95.40;;;;;;5047667;28;20389;-75
2021/05/30 04:55:14;;;;;;;27.75;14.95;;;8.40;95.60;;;;;;5049035;28;20033;-75
2021/05/30 04:57:42;;;;;;;21.83;14.65;;;8.70;95.90;;;;;;5049400;28;20037;-75
2021/05/30 05:00:09;;;;;;;18.92;11.63;;;9.10;96.00;;;;;;5049207;28;20022;-76
2021/05/30 05:02:35;;;;;;;20.77;12.35;;;9.60;96.10;;;;;;5050570;28;20104;-76
2021/05/30 05:05:01;;;;;;;20.80;11.77;;;10.00;96.00;;;;;;5048827;28;20104;-76
2021/05/30 05:07:27;;;;;;;15.85;11.63;;;10.40;95.80;;;;;;5053078;28;20473;-75
2021/05/30 05:09:52;;;;;;;24.98;14.02;;;10.70;95.40;;;;;;5049037;28;20151;-76
2021/05/30 05:12:18;;;;;;;20.02;13.63;;;11.00;95.00;;;;;;5047553;28;20335;-76
2021/05/30 05:14:43;;;;;;;15.80;11.88;;;11.40;94.70;;;;;;5047770;28;20089;-76
2021/05/30 05:17:09;;;;;;;16.42;12.00;;;11.60;94.20;;;;;;5049643;28;20125;-74
2021/05/30 05:19:35;;;;;;;16.50;11.43;;;11.80;93.60;;;;;;5052683;28;20167;-74
2021/05/30 05:22:01;;;;;;;16.60;11.90;;;11.90;93.30;;;;;;5046972;28;20039;-75
2021/05/30 05:24:26;;;;;;;15.55;11.57;;;12.00;92.90;;;;;;5041400;28;20036;-75
2021/05/30 05:26:52;;;;;;;24.65;13.95;;;12.10;92.40;;;;;;5052494;28;20033;-75
2021/05/30 05:29:17;;;;;;;18.63;13.13;;;12.10;91.60;;;;;;5054642;28;20130;-75
2021/05/30 05:31:43;;;;;;;17.70;13.02;;;12.10;91.50;;;;;;5055977;28;20033;-76
2021/05/30 05:34:09;;;;;;;18.73;11.93;;;12.30;91.20;;;;;;5044972;28;20120;-76
2021/05/30 05:36:34;;;;;;;17.85;13.07;;;12.40;91.00;;;;;;5047056;28;20033;-75
2021/05/30 05:39:00;;;;;;;17.40;12.07;;;12.40;90.50;;;;;;5053252;28;20029;-76
2021/05/30 05:41:25;;;;;;;18.15;13.00;;;12.40;90.00;;;;;;5048139;28;20120;-77
2021/05/30 05:43:51;;;;;;;19.33;13.50;;;12.40;89.40;;;;;;5053225;28;20087;-78
2021/05/30 05:46:16;;;;;;;22.05;15.77;;;12.30;88.60;;;;;;5052549;28;20095;-77
2021/05/30 05:48:42;;;;;;;20.95;14.82;;;12.20;88.20;;;;;;5049112;28;20024;-76
2021/05/30 05:51:07;;;;;;;20.05;13.85;;;12.10;87.90;;;;;;5047069;28;20029;-76
2021/05/30 05:53:33;;;;;;;24.10;14.73;;;12.10;87.40;;;;;;5042118;28;20042;-76
2021/05/30 05:55:59;;;;;;;22.42;16.00;;;11.90;87.30;;;;;;5040881;28;20116;-75
2021/05/30 05:58:25;;;;;;;19.60;14.88;;;11.90;87.90;;;;;;5030748;28;20056;-74
2021/05/30 06:00:50;;;;;;;22.45;15.57;;;11.80;88.10;;;;;;5046756;28;20022;-76
2021/05/30 06:03:16;;;;;;;27.17;15.88;;;11.90;88.10;;;;;;5048581;28;20029;-77
2021/05/30 06:05:41;;;;;;;21.92;14.82;;;12.00;88.20;;;;;;5051307;28;20029;-77
2021/05/30 06:08:08;;;;;;;20.75;15.18;;;12.00;87.80;;;;;;5036087;28;20025;-76
2021/05/30 06:10:33;;;;;;;25.85;16.73;;;11.90;87.60;;;;;;5050272;28;20098;-77
2021/05/30 06:13:03;;;;;;;21.83;16.38;;;11.90;87.90;;;;;;5034831;28;20025;-77
2021/05/30 06:15:29;;;;;;;20.95;15.45;;;11.90;88.20;;;;;;5054536;28;20041;-75
2021/05/30 06:18:08;;;;;;;21.17;15.38;;;12.00;88.30;;;;;;5043510;28;20108;-74
2021/05/30 06:20:34;;;;;;;23.05;16.10;;;12.00;88.20;;;;;;5045951;28;20133;-74
2021/05/30 06:23:00;;;;;;;23.55;16.63;;;12.10;88.10;;;;;;5047736;28;20159;-74
2021/05/30 06:25:27;;;;;;;24.00;17.17;;;12.20;87.90;;;;;;5050152;28;20086;-74
2021/05/30 06:27:55;;;;;;;24.25;16.02;;;12.20;88.10;;;;;;5051779;28;20473;-74
2021/05/30 06:30:34;;;;;;;25.05;16.13;;;12.30;88.10;;;;;;5032858;28;20504;-74
2021/05/30 06:32:59;;;;;;;26.75;17.67;;;12.50;88.20;;;;;;5046976;28;20028;-74
2021/05/30 06:35:28;;;;;;;24.45;17.33;;;12.70;88.00;;;;;;5044418;28;20037;-73
2021/05/30 06:37:54;;;;;;;24.80;16.60;;;12.80;87.20;;;;;;5051332;28;20936;-74
2021/05/30 06:40:19;;;;;;;20.58;15.88;;;12.90;87.20;;;;;;5046550;28;20115;-74
2021/05/30 06:42:46;;;;;;;22.40;17.38;;;13.00;87.30;;;;;;5053417;28;20044;-74
2021/05/30 06:45:12;;;;;;;23.70;15.80;;;13.10;86.70;;;;;;5043958;28;20025;-74
2021/05/30 06:47:38;;;;;;;23.58;17.45;;;13.10;86.50;;;;;;5039190;28;20028;-74
2021/05/30 06:50:04;;;;;;;23.40;16.98;;;13.10;86.10;;;;;;5042557;28;20033;-73
2021/05/30 06:52:29;;;;;;;23.60;17.05;;;13.20;86.20;;;;;;5042326;28;20045;-74
2021/05/30 06:54:55;;;;;;;28.17;16.80;;;13.30;86.10;;;;;;5052526;28;20025;-73
2021/05/30 06:57:21;;;;;;;22.85;16.38;;;13.40;86.20;;;;;;5044645;28;20037;-74
2021/05/30 06:59:49;;;;;;;23.27;17.13;;;13.40;85.90;;;;;;5048633;28;20027;-74
2021/05/30 07:02:16;;;;;;;21.05;15.77;;;13.50;85.90;;;;;;5051066;28;20021;-74
2021/05/30 07:04:42;;;;;;;25.02;17.80;;;13.60;85.80;;;;;;5045888;28;20489;-74
2021/05/30 07:07:07;;;;;;;29.50;18.58;;;13.60;85.60;;;;;;5045552;28;20044;-74
2021/05/30 07:09:33;;;;;;;19.13;14.93;;;13.80;85.10;;;;;;5040699;28;20045;-75
2021/05/30 07:11:58;;;;;;;21.88;16.88;;;13.80;85.40;;;;;;5034498;28;20036;-75
2021/05/30 07:14:24;;;;;;;22.50;17.33;;;13.90;85.50;;;;;;5047169;28;20025;-75
2021/05/30 07:16:52;;;;;;;26.25;16.42;;;14.10;85.10;;;;;;5049536;28;20055;-73
2021/05/30 07:19:18;;;;;;;25.80;17.05;;;14.20;84.60;;;;;;5045688;28;20029;-74
2021/05/30 07:21:43;;;;;;;22.88;17.25;;;14.20;84.50;;;;;;5056690;28;20558;-73
2021/05/30 07:24:09;;;;;;;23.10;17.15;;;14.20;84.10;;;;;;5046975;28;20034;-74
2021/05/30 07:26:37;;;;;;;23.83;16.40;;;14.20;83.40;;;;;;5045795;28;20071;-74
2021/05/30 07:29:03;;;;;;;23.33;15.52;;;14.10;83.70;;;;;;5034701;28;20056;-74
2021/05/30 07:31:28;;;;;;;23.55;17.42;;;14.10;84.50;;;;;;5033454;28;20040;-73
2021/05/30 07:33:54;;;;;;;26.92;17.20;;;14.20;83.60;;;;;;5038916;28;20029;-73
2021/05/30 07:36:19;;;;;;;24.92;18.17;;;14.10;83.40;;;;;;5043995;28;20087;-74
2021/05/30 07:38:45;;;;;;;24.10;16.95;;;14.20;84.00;;;;;;5051981;28;20029;-74
2021/05/30 07:41:10;;;;;;;23.30;18.02;;;14.30;84.20;;;;;;5036311;28;20539;-75
2021/05/30 07:43:36;;;;;;;22.48;17.25;;;14.50;83.80;;;;;;5032984;28;20040;-75
2021/05/30 07:46:02;;;;;;;26.17;18.52;;;14.50;83.10;;;;;;5032912;28;20520;-75
2021/05/30 07:48:27;;;;;;;22.02;17.58;;;14.60;83.10;;;;;;5046150;28;20155;-75
2021/05/30 07:50:53;;;;;;;23.65;17.20;;;14.70;83.30;;;;;;5061100;28;20039;-75
2021/05/30 07:53:19;;;;;;;22.10;16.92;;;14.80;83.20;;;;;;5051196;28;20620;-74
2021/05/30 07:55:45;;;;;;;25.00;17.13;;;14.90;82.90;;;;;;5047040;28;20044;-74
2021/05/30 07:58:11;;;;;;;22.25;17.25;;;15.00;82.50;;;;;;5048041;28;20021;-73
2021/05/30 08:00:36;;;;;;;22.65;16.77;;;15.10;82.90;;;;;;5038393;28;20527;-73
2021/05/30 08:03:02;;;;;;;18.83;15.50;;;15.30;83.30;;;;;;5047807;28;20037;-73
2021/05/30 08:05:29;;;;;;;23.73;17.27;;;15.50;82.10;;;;;;5043377;28;20029;-73
2021/05/30 08:07:55;;;;;;;19.05;15.10;;;15.60;81.70;;;;;;5051783;28;20455;-73
2021/05/30 08:10:22;;;;;;;20.88;15.85;;;15.70;80.70;;;;;;5033881;28;20385;-73
2021/05/30 08:12:49;;;;;;;21.05;16.48;;;15.70;79.90;;;;;;5033181;28;20033;-73
2021/05/30 08:15:16;;;;;;;22.42;16.30;;;15.80;80.30;;;;;;5045930;28;20053;-73
2021/05/30 08:17:44;;;;;;;18.20;14.88;;;16.00;80.00;;;;;;5050230;28;20037;-73
2021/05/30 08:20:10;;;;;;;21.90;16.35;;;16.10;79.60;;;;;;5044048;28;20577;-74
2021/05/30 08:22:36;;;;;;;17.35;15.00;;;16.20;78.80;;;;;;5025965;28;20460;-73
2021/05/30 08:25:02;;;;;;;23.38;16.58;;;16.30;78.50;;;;;;5045728;28;20025;-74
2021/05/30 08:27:28;;;;;;;22.20;15.40;;;16.30;78.20;;;;;;5044885;28;20047;-73
2021/05/30 08:29:54;;;;;;;20.92;15.25;;;16.50;78.70;;;;;;5047801;28;20394;-74
2021/05/30 08:32:21;;;;;;;22.95;15.90;;;16.70;77.40;;;;;;5051408;28;20104;-74
2021/05/30 08:34:47;;;;;;;21.60;17.08;;;16.70;76.10;;;;;;5047016;28;20029;-75
2021/05/30 08:37:14;;;;;;;21.52;15.93;;;16.70;75.70;;;;;;5040613;28;20041;-74
2021/05/30 08:39:39;;;;;;;19.60;15.38;;;16.70;75.90;;;;;;5041905;28;20029;-74
2021/05/30 08:42:05;;;;;;;18.77;13.55;;;16.90;75.70;;;;;;5045367;28;20029;-75
2021/05/30 08:44:31;;;;;;;16.25;12.75;;;17.00;75.60;;;;;;5046324;28;20109;-75
2021/05/30 08:46:56;;;;;;;18.60;13.30;;;17.00;74.60;;;;;;5048384;28;20116;-74
2021/05/30 08:49:22;;;;;;;18.13;12.23;;;17.10;74.20;;;;;;5050264;28;20056;-75
2021/05/30 08:51:47;;;;;;;16.77;13.35;;;17.20;74.50;;;;;;5047148;28;20481;-75
2021/05/30 08:54:18;;;;;;;17.90;12.75;;;17.30;74.60;;;;;;5028647;28;20053;-75
2021/05/30 08:56:47;;;;;;;15.43;12.23;;;17.50;74.10;;;;;;5051101;28;20041;-74
2021/05/30 08:59:32;;;;;;;14.52;11.27;;;17.60;73.50;;;;;;5047163;28;20079;-75
2021/05/30 09:02:10;;;;;;;14.90;11.30;;;17.80;73.30;;;;;;5044485;28;20075;-75
2021/05/30 09:04:38;;;;;;;13.45;10.32;;;17.80;72.20;;;;;;5048500;28;20017;-75
2021/05/30 09:07:05;;;;;;;14.38;10.10;;;17.80;72.20;;;;;;5034613;28;20036;-75
2021/05/30 09:09:42;;;;;;;17.00;11.98;;;17.90;72.20;;;;;;5052147;28;20079;-75
2021/05/30 09:12:25;;;;;;;15.43;11.48;;;18.10;71.40;;;;;;5044172;28;20029;-74
2021/05/30 09:14:52;;;;;;;13.50;10.13;;;18.20;71.20;;;;;;5050393;28;20037;-75
2021/05/30 09:17:18;;;;;;;16.52;10.90;;;18.30;71.50;;;;;;5043671;28;20064;-75
2021/05/30 09:19:55;;;;;;;13.35;10.13;;;18.40;70.90;;;;;;5050352;28;20080;-75
2021/05/30 09:22:32;;;;;;;10.25;8.63;;;18.50;70.20;;;;;;5038380;28;20121;-75
2021/05/30 09:25:05;;;;;;;10.70;7.78;;;18.50;69.80;;;;;;5041258;28;20022;-74
2021/05/30 09:27:32;;;;;;;11.15;7.65;;;18.60;68.70;;;;;;5049405;28;20119;-74
2021/05/30 09:30:15;;;;;;;12.18;9.95;;;18.60;67.70;;;;;;5050137;28;20056;-75
2021/05/30 09:33:10;;;;;;;15.50;11.35;;;18.70;67.10;;;;;;5047104;28;20112;-75
2021/05/30 09:35:44;;;;;;;13.38;9.10;;;18.60;65.80;;;;;;5047324;28;20482;-75
2021/05/30 09:38:14;;;;;;;12.02;8.73;;;18.60;66.50;;;;;;5030442;28;20029;-75
2021/05/30 09:40:41;;;;;;;14.15;9.45;;;18.60;66.50;;;;;;5047239;28;20202;-76
2021/05/30 09:43:09;;;;;;;9.88;7.45;;;18.70;66.50;;;;;;5029137;28;20401;-74
2021/05/30 09:45:36;;;;;;;13.40;9.40;;;18.90;65.90;;;;;;5046008;28;20044;-74
2021/05/30 09:48:03;;;;;;;17.80;10.27;;;18.90;64.50;;;;;;5047971;28;20048;-74
2021/05/30 09:50:34;;;;;;;11.68;9.75;;;18.80;64.00;;;;;;5054142;28;20025;-75
2021/05/30 09:53:03;;;;;;;11.05;8.18;;;18.80;65.00;;;;;;5036750;28;20040;-75
2021/05/30 09:55:34;;;;;;;11.05;8.82;;;18.90;65.50;;;;;;5053372;28;20122;-75
2021/05/30 09:58:08;;;;;;;12.35;8.15;;;19.10;64.60;;;;;;5027746;28;20040;-75
2021/05/30 10:00:34;;;;;;;12.02;8.20;;;19.10;63.80;;;;;;5038419;28;20066;-76
2021/05/30 10:03:00;;;;;;;11.85;8.93;;;19.10;63.40;;;;;;5051138;28;20025;-76
2021/05/30 10:05:26;;;;;;;10.43;7.75;;;19.10;63.60;;;;;;5048474;28;20053;-76
2021/05/30 10:07:53;;;;;;;8.88;6.88;;;19.00;62.20;;;;;;5050985;28;20170;-76
2021/05/30 10:10:19;;;;;;;10.38;7.85;;;19.00;62.40;;;;;;5052800;28;20039;-76
2021/05/30 10:12:44;;;;;;;11.95;7.95;;;19.00;62.50;;;;;;5050218;28;20021;-76
2021/05/30 10:15:12;;;;;;;12.23;6.97;;;19.10;62.40;;;;;;5051080;28;20016;-76
2021/05/30 10:17:39;;;;;;;10.63;7.10;;;19.20;62.80;;;;;;5041457;28;20033;-76
2021/05/30 10:20:09;;;;;;;8.77;6.32;;;19.30;61.50;;;;;;5050771;28;20044;-76
2021/05/30 10:22:35;;;;;;;10.68;6.82;;;19.30;60.20;;;;;;5045799;28;20043;-76
2021/05/30 10:25:00;;;;;;;6.70;5.47;;;19.30;60.20;;;;;;5053575;28;20555;-76
2021/05/30 10:27:30;;;;;;;6.53;5.60;;;19.40;60.60;;;;;;5050610;28;20041;-76
2021/05/30 10:30:13;;;;;;;9.23;6.57;;;19.50;60.80;;;;;;5053494;28;20025;-76
2021/05/30 10:32:41;;;;;;;5.13;4.57;;;19.60;59.80;;;;;;5043103;28;20104;-76
2021/05/30 10:35:17;;;;;;;6.75;5.00;;;19.70;60.20;;;;;;5046544;28;20033;-76
2021/05/30 10:37:53;;;;;;;5.93;4.90;;;19.80;59.70;;;;;;5047016;28;20032;-76
2021/05/30 10:40:52;;;;;;;8.48;6.18;;;19.90;58.30;;;;;;5051595;28;20078;-76
2021/05/30 10:43:20;;;;;;;7.80;5.85;;;19.90;57.40;;;;;;5037389;28;20059;-77
2021/05/30 10:45:51;;;;;;;6.22;4.57;;;19.90;57.90;;;;;;5051290;28;20047;-76
2021/05/30 10:48:18;;;;;;;6.47;5.03;;;19.90;57.90;;;;;;5049337;28;20511;-76
2021/05/30 10:51:00;;;;;;;7.88;5.03;;;20.00;58.00;;;;;;5046603;28;20563;-76
2021/05/30 10:53:46;;;;;;;10.65;5.95;;;20.00;57.40;;;;;;5045907;28;20567;-76
2021/05/30 10:56:31;;;;;;;8.10;4.55;;;20.10;57.10;;;;;;5042075;28;20044;-77
2021/05/30 10:59:13;;;;;;;6.90;4.50;;;20.10;57.30;;;;;;5049849;28;20493;-76
2021/05/30 11:01:41;;;;;;;4.00;3.13;;;20.30;56.10;;;;;;5046377;28;20037;-76
2021/05/30 11:04:31;;;;;;;5.65;4.78;;;20.20;56.20;;;;;;5042135;28;20028;-76
2021/05/30 11:07:08;;;;;;;5.55;3.38;;;20.30;54.70;;;;;;5053438;28;20029;-76
2021/05/30 11:09:49;;;;;;;6.82;3.67;;;20.30;55.00;;;;;;5053409;28;20071;-76
2021/05/30 11:12:23;;;;;;;5.47;3.15;;;20.20;54.30;;;;;;5043782;28;20052;-76
2021/05/30 11:15:07;;;;;;;3.85;3.35;;;20.30;54.10;;;;;;5052257;28;20029;-77
2021/05/30 11:17:40;;;;;;;5.22;3.42;;;20.40;54.20;;;;;;5053087;28;20067;-75
2021/05/30 11:20:20;;;;;;;6.25;3.50;;;20.50;53.80;;;;;;5050392;28;20405;-76
2021/05/30 11:22:51;;;;;;;4.07;2.90;;;20.60;53.20;;;;;;5040165;28;20076;-76
2021/05/30 11:25:40;;;;;;;4.43;2.50;;;20.70;53.60;;;;;;5045444;28;20072;-75
2021/05/30 11:28:13;;;;;;;5.57;2.78;;;20.80;53.50;;;;;;5046633;28;20025;-76
2021/05/30 11:30:38;;;;;;;3.50;2.28;;;20.80;52.70;;;;;;5053466;28;20071;-75
2021/05/30 11:33:05;;;;;;;4.00;2.20;;;20.80;52.60;;;;;;5051542;28;20501;-76
2021/05/30 11:35:31;;;;;;;3.70;1.92;;;20.90;51.80;;;;;;5051328;28;20122;-75
2021/05/30 11:37:57;;;;;;;5.20;2.17;;;20.90;53.00;;;;;;5037647;28;20079;-75
2021/05/30 11:40:23;;;;;;;3.28;1.92;;;21.10;53.50;;;;;;5052440;28;20478;-75
2021/05/30 11:42:50;;;;;;;3.92;1.30;;;21.20;53.40;;;;;;5049578;28;20037;-75
2021/05/30 11:45:33;;;;;;;2.97;1.33;;;21.40;53.20;;;;;;5051098;28;20029;-76
2021/05/30 11:48:07;;;;;;;2.00;1.20;;;21.50;50.70;;;;;;5024197;28;20033;-76
2021/05/30 11:50:35;;;;;;;5.55;1.75;;;21.50;50.80;;;;;;5044493;28;20488;-75
2021/05/30 11:53:06;;;;;;;3.35;1.58;;;21.50;51.00;;;;;;5041306;28;20030;-75
2021/05/30 11:55:31;;;;;;;2.63;1.33;;;21.60;50.50;;;;;;5045647;28;20041;-76
2021/05/30 11:58:04;;;;;;;2.67;1.05;;;21.60;48.70;;;;;;5046768;28;20021;-75
2021/05/30 12:00:30;;;;;;;2.50;1.00;;;21.50;49.20;;;;;;5039522;28;20370;-75
2021/05/30 12:02:56;;;;;;;1.73;0.88;;;21.60;49.90;;;;;;5042884;28;20037;-75
2021/05/30 12:05:21;;;;;;;3.05;0.90;;;21.70;49.30;;;;;;5044649;28;20063;-76
2021/05/30 12:07:47;;;;;;;2.03;0.85;;;21.90;49.60;;;;;;5041487;28;20079;-75
2021/05/30 12:10:14;;;;;;;1.73;0.75;;;22.00;47.20;;;;;;5049913;28;20024;-76
2021/05/30 12:12:44;;;;;;;1.85;0.90;;;22.00;47.00;;;;;;5050314;28;20113;-76
2021/05/30 12:15:10;;;;;;;1.90;0.80;;;21.90;46.70;;;;;;5040801;28;20020;-76
2021/05/30 12:17:37;;;;;;;4.55;1.17;;;21.90;47.30;;;;;;5041487;28;20034;-76
2021/05/30 12:20:05;;;;;;;3.28;0.95;;;21.90;46.10;;;;;;5045878;28;20132;-75
2021/05/30 12:22:32;;;;;;;2.20;0.70;;;22.00;46.20;;;;;;5037517;28;20029;-76
2021/05/30 12:24:58;;;;;;;1.98;1.23;;;22.00;45.70;;;;;;5054896;28;20029;-75
2021/05/30 12:27:24;;;;;;;1.88;0.70;;;21.90;45.60;;;;;;5050712;28;20029;-75
2021/05/30 12:29:55;;;;;;;3.22;0.80;;;22.00;46.10;;;;;;5041917;28;20017;-76
2021/05/30 12:32:22;;;;;;;1.35;0.60;;;22.10;46.10;;;;;;5054153;28;20032;-76
2021/05/30 12:34:49;;;;;;;1.63;0.60;;;22.30;46.10;;;;;;5047730;28;20021;-76
2021/05/30 12:37:16;;;;;;;2.00;0.70;;;22.30;45.80;;;;;;5035617;28;20040;-76
2021/05/30 12:39:41;;;;;;;1.48;0.60;;;22.40;45.20;;;;;;5056347;28;20476;-75